Flight Track Log - Related Links

Times and Time Zones

All times are in EDT time to prevent confusion due to time zone crossing. See the PRY5 flight status page for this flight to view local times or setup timezone preferences in your user account.

Time Position Orientation Groundspeed Altitude Reporting Facility
EDT Latitude Longitude Course Direction KTS MPH feet Rate Location/Type
Wed 09:37:00 PM 42.6598 -78.5499 155° Southeast  Level Estimated
Wed 09:38:00 PM 42.6197 -78.5242 155° Southeast  Level Estimated
Wed 09:39:00 PM 42.5796 -78.4985 155° Southeast  Level Estimated
Wed 09:40:00 PM 42.5395 -78.4729 155° Southeast  Level Estimated
Wed 09:40:31 PM 42.5081 -78.4961 155° Southeast 175 201 7,000  Level Cleveland Center
Wed 09:41:00 PM 42.4993 -78.4473 155° Southeast  Level Estimated
Wed 09:41:31 PM 42.4617 -78.4639 153° Southeast 180 207 7,000  Level Cleveland Center
Wed 09:42:00 PM 42.4592 -78.4218 155° Southeast  Level Estimated
Wed 09:42:31 PM 42.4153 -78.4344 155° Southeast 180 207 7,000  Level Cleveland Center
Wed 09:43:00 PM 42.4191 -78.3963 155° Southeast  Level Estimated
Wed 09:43:31 PM 42.3686 -78.4022 153° Southeast 180 207 7,000  Level Cleveland Center
Wed 09:44:00 PM 42.3789 -78.3708 155° Southeast  Level Estimated
Wed 09:44:31 PM 42.3222 -78.3703 153° Southeast 180 207 7,000  Level Cleveland Center
Wed 09:45:00 PM 42.3388 -78.3453 155° Southeast  Level Estimated
Wed 09:45:31 PM 42.2736 -78.3383 154° Southeast 180 207 7,000  Level Cleveland Center
Wed 09:46:31 PM 42.2272 -78.3092 155° Southeast 185 213 7,000  Level Cleveland Center
Wed 09:47:31 PM 42.1808 -78.2800 155° Southeast 185 213 7,000  Level Cleveland Center
Wed 09:48:31 PM 42.1303 -78.2508 157° South 190 219 7,000  Level Cleveland Center
Wed 09:49:31 PM 42.0817 -78.2192 154° Southeast 195 224 7,000  Level Cleveland Center
Wed 09:50:31 PM 42.0394 -78.1900 153° Southeast 190 219 7,000  Level Cleveland Center
Wed 09:51:31 PM 41.9928 -78.1636 157° South 190 219 7,000  Level Cleveland Center
Wed 09:52:31 PM 41.9442 -78.1319 154° Southeast 190 219 7,000 50 Level Cleveland Center
Wed 09:53:31 PM 41.8894 -78.1033 159° South 190 219 7,100 50 Climbing Cleveland Center
Wed 09:54:31 PM 41.8450 -78.0717 152° Southeast 197 227 7,100  Level Cleveland Center
Wed 09:55:31 PM 41.7964 -78.0458 158° South 197 227 7,100  Level Cleveland Center
Wed 09:56:31 PM 41.7500 -78.0142 153° Southeast 192 221 7,100  Level Cleveland Center
Wed 09:57:31 PM 41.7033 -77.9853 155° Southeast 192 221 7,100  Level Cleveland Center
Wed 09:58:31 PM 41.6569 -77.9539 153° Southeast 192 221 7,100  Level Cleveland Center
Wed 09:59:31 PM 41.6103 -77.9225 153° Southeast 192 221 7,100  Level Cleveland Center
Wed 10:00:31 PM 41.5678 -77.8908 151° Southeast 192 221 7,100 -42 Level Cleveland Center
Wed 10:01:54 PM 41.5019 -77.8514 156° South 181 208 7,000 -42 Descending New York Center
Wed 10:02:55 PM 41.4558 -77.8189 152° Southeast 181 208 7,000  Level New York Center
Wed 10:03:57 PM 41.4097 -77.7889 154° Southeast 181 208 7,000  Level New York Center
Wed 10:04:54 PM 41.3636 -77.7592 154° Southeast 186 214 7,000  Level New York Center
Wed 10:05:55 PM 41.3194 -77.7297 153° Southeast 186 214 7,000  Level New York Center
Wed 10:06:55 PM 41.2733 -77.7003 154° Southeast 191 220 7,000  Level New York Center
Wed 10:07:54 PM 41.2292 -77.6708 153° Southeast 191 220 7,000  Level New York Center
Wed 10:08:54 PM 41.1850 -77.6417 154° Southeast 191 220 7,000  Level New York Center
Wed 10:09:56 PM 41.1389 -77.6122 154° Southeast 191 220 7,000  Level New York Center
Wed 10:10:54 PM 41.0925 -77.5853 156° South 191 220 7,000  Level New York Center
Wed 10:11:54 PM 41.0458 -77.5614 159° South 191 220 7,000  Level New York Center
Wed 10:12:55 PM 41.0017 -77.5350 156° South 191 220 7,000  Level New York Center
Wed 10:13:55 PM 40.9553 -77.5056 154° Southeast 191 220 7,000 50 Level New York Center
Wed 10:14:56 PM 40.9131 -77.4794 155° Southeast 191 220 7,100 50 Climbing New York Center
Wed 10:15:56 PM 40.8667 -77.4531 157° South 191 220 7,100  Level New York Center
Wed 10:16:54 PM 40.8203 -77.4239 155° Southeast 191 220 7,100  Level New York Center
Wed 10:17:55 PM 40.7781 -77.3950 153° Southeast 185 213 7,100  Level New York Center
Wed 10:18:56 PM 40.7317 -77.3686 157° South 185 213 7,100  Level New York Center
Wed 10:19:55 PM 40.6853 -77.3394 155° Southeast 191 220 7,100 -50 Level New York Center
Wed 10:20:56 PM 40.6328 -77.3072 155° Southeast 191 220 7,000 -50 Descending New York Center
Wed 10:21:54 PM 40.5867 -77.2781 154° Southeast 191 220 7,000  Level New York Center
Wed 10:22:55 PM 40.5400 -77.2519 157° South 186 214 7,000  Level New York Center
Wed 10:23:55 PM 40.4958 -77.2231 154° Southeast 186 214 7,000 -50 Level New York Center
Wed 10:24:56 PM 40.4492 -77.1969 157° South 186 214 6,900 -458 Descending New York Center
Wed 10:25:53 PM 40.3986 -77.1678 156° South 192 221 6,100 -700 Descending New York Center
Wed 10:26:56 PM 40.3483 -77.1358 154° Southeast 192 221 5,500 -541 Descending New York Center
Wed 10:27:55 PM 40.2997 -77.1069 156° South 192 221 5,000 -256 Descending New York Center
Wed 10:28:53 PM 40.2514 -77.0781 155° Southeast 192 221 5,000  Level New York Center
Wed 10:29:53 PM 40.2050 -77.0492 155° Southeast 192 221 5,000  Level New York Center
Wed 10:31:00 PM 40.1560 -77.0151 153° Southeast  Level FlightAware Approximate
Wed 10:38:00 PM 39.9167 -76.8667 159° South  Level FlightAware Approximate
Wed 10:39:00 PM 39.9170 -76.8730 159° South  Level Estimated
Wed 10:40:00 PM 39.9167 -76.8667 159° South  Level FlightAware Approximate
Wed 10:41:00 PM 39.9170 -76.8730 159° South  Level Estimated
Wed 10:42:00 PM 39.9167 -76.8667 159° South  Level FlightAware Approximate
Wed 10:43:00 PM 39.9170 -76.8730 159° South  Level Estimated
Wed 10:44:00 PM 39.9167 -76.8667 159° South  Level FlightAware Approximate
Wed 10:45:00 PM 39.9170 -76.8730 159° South  Level Estimated

Login

Don't have an account? Register now (free) for customized features, flight alerts, and more!